Europa — C6QK8 — position and weather

sailwx.info

Track history (hours):
 
Tides and Currents Weather Stations Pressure Air Temp Water Temp Dewpoint Dewpoint Depression Visibility Wind Speed Wind Dir Waves Ship Positions

Europa

Operator: Hapag-Lloyd Container Line

Last reported at 2020-Feb-27 07:31 UTC. Time now 2020-Apr-02 22:19 UTC.
Position S 22°17' E 166°25'.
Warning: this ship's position is 35 days out of date.

Length 199 m; draft 6.2 m.

Type: Passenger vessel. MMSI: 308007000.

Date/timePositionNaut miles runAvg speedWind from/ knotsBaromVisibWave heightAir tempDewpointWater temp
2020-Feb-27 07:31S 22°17' E 166°25'2 1.0
2020-Feb-27 05:58S 22°16' E 166°26'0 0.0
2020-Feb-27 04:58S 22°16' E 166°26'0 0.0
2020-Feb-27 04:28S 22°16' E 166°26'0 0.0
2020-Feb-27 03:58S 22°16' E 166°26'0 0.0
2020-Feb-27 03:28S 22°16' E 166°26'0 0.0
2020-Feb-27 01:58S 22°16' E 166°26'0 0.0
2020-Feb-26 22:58S 22°16' E 166°26'0 0.0
2020-Feb-26 20:58S 22°16' E 166°26'  
2020-Feb-23 08:00S 36°50' E 174°46'0 0.0
2020-Feb-22 17:27S 36°50' E 174°46'3 7.1
2020-Feb-22 17:00S 36°49' E 174°50'16 8.0
2020-Feb-22 15:00S 36°36' E 175°00'5 9.7
2020-Feb-22 14:30S 36°32' E 175°05'64 9.1
2020-Feb-22 07:30S 37°10' E 176°10'1312.9
2020-Feb-22 06:30S 37°22' E 176°09'1212.1
2020-Feb-22 05:30S 37°34' E 176°13'5 1.8
2020-Feb-22 03:00S 37°39' E 176°11'0 0.0
2020-Feb-21 23:30S 37°39' E 176°11'0 0.0
2020-Feb-21 20:30S 37°39' E 176°11'0 0.0
2020-Feb-21 19:30S 37°39' E 176°11'0 0.0
2020-Feb-21 16:30S 37°39' E 176°11'0 0.0
2020-Feb-21 16:00S 37°39' E 176°11'0 0.0
2020-Feb-21 15:30S 37°39' E 176°11'0 0.0
2020-Feb-21 07:01S 37°39' E 176°11'0 0.0
2020-Feb-21 05:28S 37°39' E 176°11'0 0.0
2020-Feb-21 04:00S 37°39' E 176°11'0 0.0
2020-Feb-21 03:01S 37°39' E 176°11'0 0.0
2020-Feb-21 02:29S 37°39' E 176°11'17 7.5
2020-Feb-21 00:09S 37°28' E 176°29'40 8.6
2020-Feb-20 19:30S 37°29' E 177°19'611.9
2020-Feb-20 19:00S 37°29' E 177°27'2013.2
2020-Feb-20 17:31S 37°28' E 177°52'1616.0
2020-Feb-20 16:30S 37°27' E 178°12'4013.1
2020-Feb-20 13:25S 38°03' E 178°35'115 6.1
2020-Feb-19 18:24S 39°28' E 176°55'9 6.1
2020-Feb-19 16:59S 39°31' E 177°06'1111.8
2020-Feb-19 16:00S 39°41' E 177°12'8016.3
2020-Feb-19 11:07S 40°54' E 176°29'7815.2
2020-Feb-19 06:00S 41°34' E 175°01'1515.0
2020-Feb-19 05:00S 41°21' E 174°50'611.0
2020-Feb-19 04:31S 41°16' E 174°48'0 0.3
2020-Feb-19 03:29S 41°16' E 174°47'0 0.0
2020-Feb-19 02:29S 41°16' E 174°47'0 0.0
2020-Feb-18 23:59S 41°16' E 174°47'0 0.0
2020-Feb-18 23:29S 41°16' E 174°47'0 0.0
2020-Feb-18 22:59S 41°16' E 174°47'0 0.0
2020-Feb-18 20:29S 41°16' E 174°47'0 0.0
2020-Feb-18 18:29S 41°16' E 174°47'4 2.7
2020-Feb-18 17:00S 41°19' E 174°51'12 8.0
2020-Feb-18 15:30S 41°21' E 174°36'1110.7
2020-Feb-18 14:30S 41°11' E 174°31'1110.8
2020-Feb-18 13:30S 41°01' E 174°28'510.7
2020-Feb-18 13:00S 40°56' E 174°24'510.8
2020-Feb-18 12:30S 40°52' E 174°20'1110.7
2020-Feb-18 11:30S 40°44' E 174°11'1510.1
2020-Feb-18 10:00S 40°40' E 173°51'611.8
2020-Feb-18 09:30S 40°44' E 173°45'1212.0
2020-Feb-18 08:31S 40°53' E 173°35'611.9
2020-Feb-18 08:00S 40°58' E 173°30'21 4.6
2020-Feb-18 03:31S 41°16' E 173°16'0 0.0
2020-Feb-18 03:01S 41°16' E 173°16'0 0.0
2020-Feb-18 02:30S 41°16' E 173°16'0 0.0
2020-Feb-18 00:00S 41°16' E 173°16'17 1.8
2020-Feb-17 14:30S 40°58' E 173°15'9 4.4
2020-Feb-17 12:30S 40°52' E 173°24'34 9.6
2020-Feb-17 09:00S 40°43' E 174°06'510.3
2020-Feb-17 08:30S 40°47' E 174°10'510.1
2020-Feb-17 08:00S 40°51' E 174°14'  
Track history (hours):
 
Tides and Currents Weather Stations Pressure Air Temp Water Temp Dewpoint Dewpoint Depression Visibility Wind Speed Wind Dir Waves Ship Positions

Europa

Operator: Hapag-Lloyd Container Line

Last reported at 2020-Feb-27 07:31 UTC. Time now 2020-Apr-02 22:19 UTC.
Position S 22°17' E 166°25'.
Warning: this ship's position is 35 days out of date.

Length 199 m; draft 6.2 m.

Type: Passenger vessel. MMSI: 308007000.

Date/timePositionNaut miles runAvg speedWind from/ knotsBaromVisibWave heightAir tempDewpointWater temp
2020-Feb-27 07:31S 22°17' E 166°25'2 1.0
2020-Feb-27 05:58S 22°16' E 166°26'0 0.0
2020-Feb-27 04:58S 22°16' E 166°26'0 0.0
2020-Feb-27 04:28S 22°16' E 166°26'0 0.0
2020-Feb-27 03:58S 22°16' E 166°26'0 0.0
2020-Feb-27 03:28S 22°16' E 166°26'0 0.0
2020-Feb-27 01:58S 22°16' E 166°26'0 0.0
2020-Feb-26 22:58S 22°16' E 166°26'0 0.0
2020-Feb-26 20:58S 22°16' E 166°26'  
2020-Feb-23 08:00S 36°50' E 174°46'0 0.0
2020-Feb-22 17:27S 36°50' E 174°46'3 7.1
2020-Feb-22 17:00S 36°49' E 174°50'16 8.0
2020-Feb-22 15:00S 36°36' E 175°00'5 9.7
2020-Feb-22 14:30S 36°32' E 175°05'64 9.1
2020-Feb-22 07:30S 37°10' E 176°10'1312.9
2020-Feb-22 06:30S 37°22' E 176°09'1212.1
2020-Feb-22 05:30S 37°34' E 176°13'5 1.8
2020-Feb-22 03:00S 37°39' E 176°11'0 0.0
2020-Feb-21 23:30S 37°39' E 176°11'0 0.0
2020-Feb-21 20:30S 37°39' E 176°11'0 0.0
2020-Feb-21 19:30S 37°39' E 176°11'0 0.0
2020-Feb-21 16:30S 37°39' E 176°11'0 0.0
2020-Feb-21 16:00S 37°39' E 176°11'0 0.0
2020-Feb-21 15:30S 37°39' E 176°11'0 0.0
2020-Feb-21 07:01S 37°39' E 176°11'0 0.0
2020-Feb-21 05:28S 37°39' E 176°11'0 0.0
2020-Feb-21 04:00S 37°39' E 176°11'0 0.0
2020-Feb-21 03:01S 37°39' E 176°11'0 0.0
2020-Feb-21 02:29S 37°39' E 176°11'17 7.5
2020-Feb-21 00:09S 37°28' E 176°29'40 8.6
2020-Feb-20 19:30S 37°29' E 177°19'611.9
2020-Feb-20 19:00S 37°29' E 177°27'2013.2
2020-Feb-20 17:31S 37°28' E 177°52'1616.0
2020-Feb-20 16:30S 37°27' E 178°12'4013.1
2020-Feb-20 13:25S 38°03' E 178°35'115 6.1
2020-Feb-19 18:24S 39°28' E 176°55'9 6.1
2020-Feb-19 16:59S 39°31' E 177°06'1111.8
2020-Feb-19 16:00S 39°41' E 177°12'8016.3
2020-Feb-19 11:07S 40°54' E 176°29'7815.2
2020-Feb-19 06:00S 41°34' E 175°01'1515.0
2020-Feb-19 05:00S 41°21' E 174°50'611.0
2020-Feb-19 04:31S 41°16' E 174°48'0 0.3
2020-Feb-19 03:29S 41°16' E 174°47'0 0.0
2020-Feb-19 02:29S 41°16' E 174°47'0 0.0
2020-Feb-18 23:59S 41°16' E 174°47'0 0.0
2020-Feb-18 23:29S 41°16' E 174°47'0 0.0
2020-Feb-18 22:59S 41°16' E 174°47'0 0.0
2020-Feb-18 20:29S 41°16' E 174°47'0 0.0
2020-Feb-18 18:29S 41°16' E 174°47'4 2.7
2020-Feb-18 17:00S 41°19' E 174°51'12 8.0
2020-Feb-18 15:30S 41°21' E 174°36'1110.7
2020-Feb-18 14:30S 41°11' E 174°31'1110.8
2020-Feb-18 13:30S 41°01' E 174°28'510.7
2020-Feb-18 13:00S 40°56' E 174°24'510.8
2020-Feb-18 12:30S 40°52' E 174°20'1110.7
2020-Feb-18 11:30S 40°44' E 174°11'1510.1
2020-Feb-18 10:00S 40°40' E 173°51'611.8
2020-Feb-18 09:30S 40°44' E 173°45'1212.0
2020-Feb-18 08:31S 40°53' E 173°35'611.9
2020-Feb-18 08:00S 40°58' E 173°30'21 4.6
2020-Feb-18 03:31S 41°16' E 173°16'0 0.0
2020-Feb-18 03:01S 41°16' E 173°16'0 0.0
2020-Feb-18 02:30S 41°16' E 173°16'0 0.0
2020-Feb-18 00:00S 41°16' E 173°16'17 1.8
2020-Feb-17 14:30S 40°58' E 173°15'9 4.4
2020-Feb-17 12:30S 40°52' E 173°24'34 9.6
2020-Feb-17 09:00S 40°43' E 174°06'510.3
2020-Feb-17 08:30S 40°47' E 174°10'510.1
2020-Feb-17 08:00S 40°51' E 174°14'  

Dump ship's entire track history